sensor_id;sensor_type;location;lat;lon;timestamp;P1;durP1;ratioP1;P2;durP2;ratioP2
6412;SDS011;3239;48.714;9.472;2022-10-19T00:03:42;12.93;;;6.47;;
6412;SDS011;3239;48.714;9.472;2022-10-19T00:06:10;22.97;;;6.67;;
6412;SDS011;3239;48.714;9.472;2022-10-19T00:08:43;7.17;;;4.90;;
6412;SDS011;3239;48.714;9.472;2022-10-19T00:11:10;7.30;;;5.03;;
6412;SDS011;3239;48.714;9.472;2022-10-19T00:13:36;10.03;;;5.80;;
6412;SDS011;3239;48.714;9.472;2022-10-19T00:16:06;7.53;;;4.40;;
6412;SDS011;3239;48.714;9.472;2022-10-19T00:18:37;10.47;;;4.97;;
6412;SDS011;3239;48.714;9.472;2022-10-19T00:21:04;9.23;;;5.00;;
6412;SDS011;3239;48.714;9.472;2022-10-19T00:23:32;11.10;;;5.20;;
6412;SDS011;3239;48.714;9.472;2022-10-19T00:25:58;25.07;;;5.70;;
6412;SDS011;3239;48.714;9.472;2022-10-19T00:28:25;20.77;;;6.17;;
6412;SDS011;3239;48.714;9.472;2022-10-19T00:30:51;18.07;;;5.27;;
6412;SDS011;3239;48.714;9.472;2022-10-19T00:33:17;20.67;;;6.50;;
6412;SDS011;3239;48.714;9.472;2022-10-19T00:35:46;25.90;;;7.20;;
6412;SDS011;3239;48.714;9.472;2022-10-19T00:38:16;27.00;;;6.90;;
6412;SDS011;3239;48.714;9.472;2022-10-19T00:40:44;22.43;;;7.77;;
6412;SDS011;3239;48.714;9.472;2022-10-19T00:43:17;14.43;;;7.80;;
6412;SDS011;3239;48.714;9.472;2022-10-19T00:45:56;27.97;;;7.70;;
6412;SDS011;3239;48.714;9.472;2022-10-19T00:48:25;27.57;;;9.47;;
6412;SDS011;3239;48.714;9.472;2022-10-19T00:50:56;13.60;;;8.17;;
6412;SDS011;3239;48.714;9.472;2022-10-19T00:53:23;10.73;;;5.93;;
6412;SDS011;3239;48.714;9.472;2022-10-19T00:55:53;9.33;;;7.20;;
6412;SDS011;3239;48.714;9.472;2022-10-19T00:58:19;10.03;;;7.63;;
6412;SDS011;3239;48.714;9.472;2022-10-19T01:00:45;21.83;;;9.57;;
6412;SDS011;3239;48.714;9.472;2022-10-19T01:03:11;13.53;;;8.30;;
6412;SDS011;3239;48.714;9.472;2022-10-19T01:05:38;20.77;;;8.37;;
6412;SDS011;3239;48.714;9.472;2022-10-19T01:08:04;22.43;;;8.93;;
6412;SDS011;3239;48.714;9.472;2022-10-19T01:10:39;25.00;;;9.40;;
6412;SDS011;3239;48.714;9.472;2022-10-19T01:15:59;22.13;;;8.00;;
6412;SDS011;3239;48.714;9.472;2022-10-19T01:18:56;11.80;;;9.07;;
6412;SDS011;3239;48.714;9.472;2022-10-19T01:21:57;25.10;;;8.00;;
6412;SDS011;3239;48.714;9.472;2022-10-19T01:27:59;29.50;;;8.47;;
6412;SDS011;3239;48.714;9.472;2022-10-19T01:30:45;28.03;;;9.83;;
6412;SDS011;3239;48.714;9.472;2022-10-19T01:37:03;31.63;;;7.30;;
6412;SDS011;3239;48.714;9.472;2022-10-19T01:40:00;7.93;;;6.40;;
6412;SDS011;3239;48.714;9.472;2022-10-19T01:42:54;16.13;;;6.90;;
6412;SDS011;3239;48.714;9.472;2022-10-19T01:45:41;32.10;;;6.73;;
6412;SDS011;3239;48.714;9.472;2022-10-19T01:48:21;11.80;;;7.07;;
6412;SDS011;3239;48.714;9.472;2022-10-19T01:50:55;10.37;;;7.10;;
6412;SDS011;3239;48.714;9.472;2022-10-19T01:53:27;13.53;;;7.13;;
6412;SDS011;3239;48.714;9.472;2022-10-19T01:55:59;26.33;;;9.07;;
6412;SDS011;3239;48.714;9.472;2022-10-19T01:58:29;15.40;;;8.37;;
6412;SDS011;3239;48.714;9.472;2022-10-19T02:01:01;17.93;;;7.30;;
6412;SDS011;3239;48.714;9.472;2022-10-19T02:03:33;18.43;;;8.60;;
6412;SDS011;3239;48.714;9.472;2022-10-19T02:06:02;11.67;;;7.93;;
6412;SDS011;3239;48.714;9.472;2022-10-19T02:08:33;11.30;;;8.33;;
6412;SDS011;3239;48.714;9.472;2022-10-19T02:11:07;7.83;;;6.30;;
6412;SDS011;3239;48.714;9.472;2022-10-19T02:13:33;11.80;;;8.00;;
6412;SDS011;3239;48.714;9.472;2022-10-19T02:16:02;9.20;;;6.83;;
6412;SDS011;3239;48.714;9.472;2022-10-19T02:18:35;11.20;;;7.67;;
6412;SDS011;3239;48.714;9.472;2022-10-19T02:21:05;18.03;;;8.00;;
6412;SDS011;3239;48.714;9.472;2022-10-19T02:23:33;11.10;;;7.17;;
6412;SDS011;3239;48.714;9.472;2022-10-19T02:25:59;24.17;;;8.50;;
6412;SDS011;3239;48.714;9.472;2022-10-19T02:28:25;19.27;;;8.53;;
6412;SDS011;3239;48.714;9.472;2022-10-19T02:30:52;16.43;;;7.77;;
6412;SDS011;3239;48.714;9.472;2022-10-19T02:33:18;14.07;;;8.17;;
6412;SDS011;3239;48.714;9.472;2022-10-19T02:35:44;8.30;;;7.20;;
6412;SDS011;3239;48.714;9.472;2022-10-19T02:38:10;14.33;;;8.00;;
6412;SDS011;3239;48.714;9.472;2022-10-19T02:40:46;21.70;;;8.63;;
6412;SDS011;3239;48.714;9.472;2022-10-19T02:43:22;15.73;;;8.60;;
6412;SDS011;3239;48.714;9.472;2022-10-19T02:46:00;11.93;;;7.50;;
6412;SDS011;3239;48.714;9.472;2022-10-19T02:48:54;10.93;;;7.43;;
6412;SDS011;3239;48.714;9.472;2022-10-19T02:51:25;8.53;;;7.70;;
6412;SDS011;3239;48.714;9.472;2022-10-19T02:53:57;15.83;;;8.10;;
6412;SDS011;3239;48.714;9.472;2022-10-19T02:56:22;15.67;;;8.00;;
6412;SDS011;3239;48.714;9.472;2022-10-19T02:58:48;11.63;;;8.00;;
6412;SDS011;3239;48.714;9.472;2022-10-19T03:01:14;10.00;;;7.70;;
6412;SDS011;3239;48.714;9.472;2022-10-19T03:03:40;10.03;;;6.97;;
6412;SDS011;3239;48.714;9.472;2022-10-19T03:06:05;9.07;;;7.60;;
6412;SDS011;3239;48.714;9.472;2022-10-19T03:08:31;17.47;;;8.90;;
6412;SDS011;3239;48.714;9.472;2022-10-19T03:10:57;12.83;;;7.80;;
6412;SDS011;3239;48.714;9.472;2022-10-19T03:13:23;15.23;;;7.97;;
6412;SDS011;3239;48.714;9.472;2022-10-19T03:15:49;14.27;;;9.27;;
6412;SDS011;3239;48.714;9.472;2022-10-19T03:18:15;16.53;;;9.00;;
6412;SDS011;3239;48.714;9.472;2022-10-19T03:20:40;16.87;;;8.73;;
6412;SDS011;3239;48.714;9.472;2022-10-19T03:23:06;11.70;;;9.43;;
6412;SDS011;3239;48.714;9.472;2022-10-19T03:25:32;10.53;;;8.80;;
6412;SDS011;3239;48.714;9.472;2022-10-19T03:27:58;19.43;;;11.10;;
6412;SDS011;3239;48.714;9.472;2022-10-19T03:30:23;12.53;;;9.30;;
6412;SDS011;3239;48.714;9.472;2022-10-19T03:32:49;10.80;;;9.23;;
6412;SDS011;3239;48.714;9.472;2022-10-19T03:35:15;13.67;;;10.07;;
6412;SDS011;3239;48.714;9.472;2022-10-19T03:37:41;11.33;;;9.40;;
6412;SDS011;3239;48.714;9.472;2022-10-19T03:40:06;10.60;;;9.17;;
6412;SDS011;3239;48.714;9.472;2022-10-19T03:42:33;11.40;;;9.93;;
6412;SDS011;3239;48.714;9.472;2022-10-19T03:44:59;10.20;;;8.70;;
6412;SDS011;3239;48.714;9.472;2022-10-19T03:47:24;10.17;;;9.13;;
6412;SDS011;3239;48.714;9.472;2022-10-19T03:49:50;11.40;;;9.33;;
6412;SDS011;3239;48.714;9.472;2022-10-19T03:52:17;18.23;;;10.20;;
6412;SDS011;3239;48.714;9.472;2022-10-19T03:54:43;20.00;;;10.20;;
6412;SDS011;3239;48.714;9.472;2022-10-19T03:57:10;17.77;;;10.70;;
6412;SDS011;3239;48.714;9.472;2022-10-19T03:59:36;25.10;;;11.37;;
6412;SDS011;3239;48.714;9.472;2022-10-19T04:02:02;19.90;;;10.53;;
6412;SDS011;3239;48.714;9.472;2022-10-19T04:04:28;13.40;;;10.30;;
6412;SDS011;3239;48.714;9.472;2022-10-19T04:06:53;14.20;;;9.17;;
6412;SDS011;3239;48.714;9.472;2022-10-19T04:09:20;13.90;;;10.10;;
6412;SDS011;3239;48.714;9.472;2022-10-19T04:11:46;12.13;;;9.67;;
6412;SDS011;3239;48.714;9.472;2022-10-19T04:14:14;15.27;;;10.70;;
6412;SDS011;3239;48.714;9.472;2022-10-19T04:16:41;12.37;;;10.00;;
6412;SDS011;3239;48.714;9.472;2022-10-19T04:19:07;19.20;;;10.70;;
6412;SDS011;3239;48.714;9.472;2022-10-19T04:21:37;31.43;;;10.33;;
6412;SDS011;3239;48.714;9.472;2022-10-19T04:26:40;12.30;;;7.70;;
6412;SDS011;3239;48.714;9.472;2022-10-19T04:29:12;7.67;;;6.93;;
6412;SDS011;3239;48.714;9.472;2022-10-19T04:31:39;7.60;;;6.73;;
6412;SDS011;3239;48.714;9.472;2022-10-19T04:34:05;36.73;;;7.70;;
6412;SDS011;3239;48.714;9.472;2022-10-19T04:36:31;18.27;;;7.57;;
6412;SDS011;3239;48.714;9.472;2022-10-19T04:38:57;13.30;;;8.00;;
6412;SDS011;3239;48.714;9.472;2022-10-19T04:41:23;11.23;;;7.70;;
6412;SDS011;3239;48.714;9.472;2022-10-19T04:43:53;15.67;;;8.00;;
6412;SDS011;3239;48.714;9.472;2022-10-19T04:46:22;8.77;;;7.23;;
6412;SDS011;3239;48.714;9.472;2022-10-19T04:48:49;19.77;;;9.10;;
6412;SDS011;3239;48.714;9.472;2022-10-19T04:51:15;39.37;;;8.50;;
6412;SDS011;3239;48.714;9.472;2022-10-19T04:53:42;143.70;;;11.30;;
6412;SDS011;3239;48.714;9.472;2022-10-19T04:56:10;31.47;;;9.33;;
6412;SDS011;3239;48.714;9.472;2022-10-19T04:58:42;12.97;;;9.90;;
6412;SDS011;3239;48.714;9.472;2022-10-19T05:01:18;14.03;;;8.80;;
6412;SDS011;3239;48.714;9.472;2022-10-19T05:03:46;10.90;;;8.67;;
6412;SDS011;3239;48.714;9.472;2022-10-19T05:06:12;13.37;;;9.70;;
6412;SDS011;3239;48.714;9.472;2022-10-19T05:08:39;45.77;;;11.40;;
6412;SDS011;3239;48.714;9.472;2022-10-19T05:11:06;9.80;;;8.80;;
6412;SDS011;3239;48.714;9.472;2022-10-19T05:13:36;16.27;;;10.20;;
6412;SDS011;3239;48.714;9.472;2022-10-19T05:16:03;20.60;;;10.47;;
6412;SDS011;3239;48.714;9.472;2022-10-19T05:18:31;19.80;;;9.97;;
6412;SDS011;3239;48.714;9.472;2022-10-19T05:23:37;18.60;;;11.60;;
6412;SDS011;3239;48.714;9.472;2022-10-19T05:26:06;33.43;;;11.57;;
6412;SDS011;3239;48.714;9.472;2022-10-19T05:28:37;22.43;;;11.70;;
6412;SDS011;3239;48.714;9.472;2022-10-19T05:31:04;24.80;;;11.00;;
6412;SDS011;3239;48.714;9.472;2022-10-19T05:33:39;23.43;;;13.03;;
6412;SDS011;3239;48.714;9.472;2022-10-19T05:36:24;24.17;;;12.50;;
6412;SDS011;3239;48.714;9.472;2022-10-19T05:38:54;30.83;;;12.87;;
6412;SDS011;3239;48.714;9.472;2022-10-19T05:41:22;21.13;;;13.33;;
6412;SDS011;3239;48.714;9.472;2022-10-19T05:43:54;23.33;;;13.17;;
6412;SDS011;3239;48.714;9.472;2022-10-19T05:46:23;31.70;;;13.93;;
6412;SDS011;3239;48.714;9.472;2022-10-19T05:48:51;37.57;;;14.50;;
6412;SDS011;3239;48.714;9.472;2022-10-19T05:51:18;28.27;;;13.47;;
6412;SDS011;3239;48.714;9.472;2022-10-19T05:53:46;23.50;;;13.77;;
6412;SDS011;3239;48.714;9.472;2022-10-19T05:56:12;23.97;;;14.07;;
6412;SDS011;3239;48.714;9.472;2022-10-19T05:58:44;26.80;;;13.30;;
6412;SDS011;3239;48.714;9.472;2022-10-19T06:01:11;21.80;;;14.23;;
6412;SDS011;3239;48.714;9.472;2022-10-19T06:03:38;19.83;;;12.70;;
6412;SDS011;3239;48.714;9.472;2022-10-19T06:06:04;20.60;;;12.00;;
6412;SDS011;3239;48.714;9.472;2022-10-19T06:08:32;24.50;;;11.10;;
6412;SDS011;3239;48.714;9.472;2022-10-19T06:11:03;17.43;;;11.10;;
6412;SDS011;3239;48.714;9.472;2022-10-19T06:13:32;16.97;;;10.73;;
6412;SDS011;3239;48.714;9.472;2022-10-19T06:15:58;13.20;;;10.60;;
6412;SDS011;3239;48.714;9.472;2022-10-19T06:18:24;22.23;;;11.90;;
6412;SDS011;3239;48.714;9.472;2022-10-19T06:20:50;14.37;;;11.07;;
6412;SDS011;3239;48.714;9.472;2022-10-19T06:23:16;20.00;;;10.30;;
6412;SDS011;3239;48.714;9.472;2022-10-19T06:25:42;14.63;;;11.10;;
6412;SDS011;3239;48.714;9.472;2022-10-19T06:28:08;23.30;;;13.47;;
6412;SDS011;3239;48.714;9.472;2022-10-19T06:30:38;13.40;;;10.60;;
6412;SDS011;3239;48.714;9.472;2022-10-19T06:33:05;15.63;;;11.23;;
6412;SDS011;3239;48.714;9.472;2022-10-19T06:35:31;14.63;;;10.53;;
6412;SDS011;3239;48.714;9.472;2022-10-19T06:37:57;15.03;;;10.53;;
6412;SDS011;3239;48.714;9.472;2022-10-19T06:40:24;13.20;;;10.00;;
6412;SDS011;3239;48.714;9.472;2022-10-19T06:42:50;15.40;;;10.93;;
6412;SDS011;3239;48.714;9.472;2022-10-19T06:45:16;12.40;;;10.23;;
6412;SDS011;3239;48.714;9.472;2022-10-19T06:47:42;13.47;;;9.60;;
6412;SDS011;3239;48.714;9.472;2022-10-19T06:50:07;20.53;;;10.40;;
6412;SDS011;3239;48.714;9.472;2022-10-19T06:52:34;14.37;;;9.33;;
6412;SDS011;3239;48.714;9.472;2022-10-19T06:55:00;11.43;;;9.87;;
6412;SDS011;3239;48.714;9.472;2022-10-19T06:57:26;8.70;;;7.70;;
6412;SDS011;3239;48.714;9.472;2022-10-19T06:59:52;10.90;;;8.60;;
6412;SDS011;3239;48.714;9.472;2022-10-19T07:02:19;9.20;;;8.07;;
6412;SDS011;3239;48.714;9.472;2022-10-19T07:04:45;9.77;;;8.50;;
6412;SDS011;3239;48.714;9.472;2022-10-19T07:07:11;13.23;;;9.70;;
6412;SDS011;3239;48.714;9.472;2022-10-19T07:09:36;11.20;;;9.50;;
6412;SDS011;3239;48.714;9.472;2022-10-19T07:12:02;18.83;;;10.20;;
6412;SDS011;3239;48.714;9.472;2022-10-19T07:14:28;13.97;;;8.30;;
6412;SDS011;3239;48.714;9.472;2022-10-19T07:16:55;15.23;;;9.67;;
6412;SDS011;3239;48.714;9.472;2022-10-19T07:19:24;15.50;;;8.93;;
6412;SDS011;3239;48.714;9.472;2022-10-19T07:21:51;12.40;;;9.53;;
6412;SDS011;3239;48.714;9.472;2022-10-19T07:24:17;9.70;;;8.77;;
6412;SDS011;3239;48.714;9.472;2022-10-19T07:26:43;9.30;;;8.30;;
6412;SDS011;3239;48.714;9.472;2022-10-19T07:29:09;14.50;;;10.20;;
6412;SDS011;3239;48.714;9.472;2022-10-19T07:31:35;10.50;;;8.93;;
6412;SDS011;3239;48.714;9.472;2022-10-19T07:34:01;17.70;;;10.30;;
6412;SDS011;3239;48.714;9.472;2022-10-19T07:36:29;15.47;;;9.77;;
6412;SDS011;3239;48.714;9.472;2022-10-19T07:38:57;13.20;;;8.43;;
6412;SDS011;3239;48.714;9.472;2022-10-19T07:41:25;13.97;;;10.67;;
6412;SDS011;3239;48.714;9.472;2022-10-19T07:43:50;13.23;;;9.57;;
6412;SDS011;3239;48.714;9.472;2022-10-19T07:46:21;15.13;;;9.30;;
6412;SDS011;3239;48.714;9.472;2022-10-19T07:48:50;11.73;;;8.17;;
6412;SDS011;3239;48.714;9.472;2022-10-19T07:51:16;9.10;;;8.20;;
6412;SDS011;3239;48.714;9.472;2022-10-19T07:53:43;20.70;;;9.63;;
6412;SDS011;3239;48.714;9.472;2022-10-19T07:58:40;11.43;;;8.90;;
6412;SDS011;3239;48.714;9.472;2022-10-19T08:03:40;12.93;;;7.87;;
6412;SDS011;3239;48.714;9.472;2022-10-19T08:06:08;10.03;;;8.40;;
6412;SDS011;3239;48.714;9.472;2022-10-19T08:08:37;16.93;;;8.80;;
6412;SDS011;3239;48.714;9.472;2022-10-19T08:11:06;11.07;;;8.83;;
6412;SDS011;3239;48.714;9.472;2022-10-19T08:13:36;13.63;;;9.07;;
6412;SDS011;3239;48.714;9.472;2022-10-19T08:16:03;13.50;;;10.37;;
6412;SDS011;3239;48.714;9.472;2022-10-19T08:18:30;10.10;;;8.30;;
6412;SDS011;3239;48.714;9.472;2022-10-19T08:20:56;14.83;;;8.90;;
6412;SDS011;3239;48.714;9.472;2022-10-19T08:23:22;11.37;;;8.73;;
6412;SDS011;3239;48.714;9.472;2022-10-19T08:25:49;12.83;;;9.23;;
6412;SDS011;3239;48.714;9.472;2022-10-19T08:28:14;14.37;;;8.30;;
6412;SDS011;3239;48.714;9.472;2022-10-19T08:30:40;13.20;;;8.90;;
6412;SDS011;3239;48.714;9.472;2022-10-19T08:33:06;10.00;;;7.23;;
6412;SDS011;3239;48.714;9.472;2022-10-19T08:35:32;10.03;;;6.33;;
6412;SDS011;3239;48.714;9.472;2022-10-19T08:37:59;6.53;;;5.87;;
6412;SDS011;3239;48.714;9.472;2022-10-19T08:40:27;4.90;;;4.20;;
6412;SDS011;3239;48.714;9.472;2022-10-19T08:46:18;6.57;;;4.57;;
6412;SDS011;3239;48.714;9.472;2022-10-19T08:49:20;6.10;;;4.67;;
6412;SDS011;3239;48.714;9.472;2022-10-19T08:51:55;6.27;;;4.50;;
6412;SDS011;3239;48.714;9.472;2022-10-19T08:54:34;5.47;;;4.97;;
6412;SDS011;3239;48.714;9.472;2022-10-19T09:02:48;9.10;;;4.90;;
6412;SDS011;3239;48.714;9.472;2022-10-19T09:05:52;11.13;;;4.73;;
6412;SDS011;3239;48.714;9.472;2022-10-19T09:08:44;4.73;;;4.20;;
6412;SDS011;3239;48.714;9.472;2022-10-19T09:11:11;5.50;;;4.30;;
6412;SDS011;3239;48.714;9.472;2022-10-19T09:13:41;5.33;;;3.70;;
6412;SDS011;3239;48.714;9.472;2022-10-19T09:16:10;8.20;;;4.20;;
6412;SDS011;3239;48.714;9.472;2022-10-19T09:18:39;5.20;;;4.27;;
6412;SDS011;3239;48.714;9.472;2022-10-19T09:21:20;10.87;;;4.63;;
6412;SDS011;3239;48.714;9.472;2022-10-19T09:23:52;9.60;;;4.27;;
6412;SDS011;3239;48.714;9.472;2022-10-19T09:26:30;6.13;;;4.30;;
6412;SDS011;3239;48.714;9.472;2022-10-19T09:29:09;5.63;;;4.23;;
6412;SDS011;3239;48.714;9.472;2022-10-19T09:31:49;5.00;;;4.17;;
6412;SDS011;3239;48.714;9.472;2022-10-19T09:37:18;4.60;;;3.63;;
6412;SDS011;3239;48.714;9.472;2022-10-19T09:39:46;4.67;;;4.17;;
6412;SDS011;3239;48.714;9.472;2022-10-19T09:44:58;4.20;;;3.90;;
6412;SDS011;3239;48.714;9.472;2022-10-19T09:47:37;6.13;;;4.03;;
6412;SDS011;3239;48.714;9.472;2022-10-19T09:52:45;5.07;;;4.50;;
6412;SDS011;3239;48.714;9.472;2022-10-19T09:55:43;6.53;;;4.80;;
6412;SDS011;3239;48.714;9.472;2022-10-19T09:58:16;4.90;;;4.00;;
6412;SDS011;3239;48.714;9.472;2022-10-19T10:00:44;3.63;;;3.33;;
6412;SDS011;3239;48.714;9.472;2022-10-19T10:05:48;4.40;;;3.67;;
6412;SDS011;3239;48.714;9.472;2022-10-19T10:08:25;5.00;;;3.47;;
6412;SDS011;3239;48.714;9.472;2022-10-19T10:13:47;5.17;;;4.00;;
6412;SDS011;3239;48.714;9.472;2022-10-19T10:16:16;4.93;;;3.70;;
6412;SDS011;3239;48.714;9.472;2022-10-19T10:26:39;5.57;;;4.00;;
6412;SDS011;3239;48.714;9.472;2022-10-19T10:29:16;8.53;;;4.10;;
6412;SDS011;3239;48.714;9.472;2022-10-19T10:31:43;9.90;;;4.33;;
6412;SDS011;3239;48.714;9.472;2022-10-19T10:34:10;5.13;;;4.60;;
6412;SDS011;3239;48.714;9.472;2022-10-19T10:36:56;4.83;;;3.93;;
6412;SDS011;3239;48.714;9.472;2022-10-19T10:39:23;5.40;;;4.90;;
6412;SDS011;3239;48.714;9.472;2022-10-19T10:41:51;4.37;;;3.97;;
6412;SDS011;3239;48.714;9.472;2022-10-19T10:46:55;4.70;;;4.23;;
6412;SDS011;3239;48.714;9.472;2022-10-19T10:49:26;6.73;;;5.20;;
6412;SDS011;3239;48.714;9.472;2022-10-19T10:51:57;8.20;;;4.10;;
6412;SDS011;3239;48.714;9.472;2022-10-19T10:54:29;8.83;;;4.93;;
6412;SDS011;3239;48.714;9.472;2022-10-19T10:57:04;6.13;;;4.57;;
6412;SDS011;3239;48.714;9.472;2022-10-19T11:05:30;4.90;;;4.50;;
6412;SDS011;3239;48.714;9.472;2022-10-19T11:11:10;5.60;;;4.60;;
6412;SDS011;3239;48.714;9.472;2022-10-19T11:13:49;4.80;;;4.40;;
6412;SDS011;3239;48.714;9.472;2022-10-19T11:16:24;5.93;;;4.57;;
6412;SDS011;3239;48.714;9.472;2022-10-19T11:19:17;5.27;;;4.77;;
6412;SDS011;3239;48.714;9.472;2022-10-19T11:27:42;7.70;;;4.07;;
6412;SDS011;3239;48.714;9.472;2022-10-19T11:30:20;5.50;;;4.07;;
6412;SDS011;3239;48.714;9.472;2022-10-19T11:56:15;10.10;;;6.93;;
6412;SDS011;3239;48.714;9.472;2022-10-19T11:59:24;7.30;;;4.50;;
6412;SDS011;3239;48.714;9.472;2022-10-19T12:05:35;5.60;;;4.30;;
6412;SDS011;3239;48.714;9.472;2022-10-19T12:14:07;4.53;;;4.00;;
6412;SDS011;3239;48.714;9.472;2022-10-19T12:16:48;4.53;;;4.13;;
6412;SDS011;3239;48.714;9.472;2022-10-19T12:19:23;5.37;;;4.57;;
6412;SDS011;3239;48.714;9.472;2022-10-19T12:21:59;4.37;;;3.73;;
6412;SDS011;3239;48.714;9.472;2022-10-19T12:24:29;5.50;;;3.77;;
6412;SDS011;3239;48.714;9.472;2022-10-19T12:26:57;3.50;;;3.20;;
6412;SDS011;3239;48.714;9.472;2022-10-19T12:29:35;4.20;;;3.27;;
6412;SDS011;3239;48.714;9.472;2022-10-19T12:32:06;4.40;;;3.40;;
6412;SDS011;3239;48.714;9.472;2022-10-19T12:34:55;3.97;;;2.90;;
6412;SDS011;3239;48.714;9.472;2022-10-19T12:37:48;3.70;;;3.40;;
6412;SDS011;3239;48.714;9.472;2022-10-19T12:40:37;8.50;;;3.53;;
6412;SDS011;3239;48.714;9.472;2022-10-19T12:43:18;5.63;;;3.03;;
6412;SDS011;3239;48.714;9.472;2022-10-19T12:49:48;4.30;;;2.63;;
6412;SDS011;3239;48.714;9.472;2022-10-19T12:51:55;2.60;;;2.40;;
6412;SDS011;3239;48.714;9.472;2022-10-19T12:54:23;2.87;;;2.67;;
6412;SDS011;3239;48.714;9.472;2022-10-19T12:56:56;4.70;;;2.07;;
6412;SDS011;3239;48.714;9.472;2022-10-19T13:01:58;4.43;;;2.37;;
6412;SDS011;3239;48.714;9.472;2022-10-19T13:04:28;2.97;;;2.43;;
6412;SDS011;3239;48.714;9.472;2022-10-19T13:14:56;2.20;;;2.00;;
6412;SDS011;3239;48.714;9.472;2022-10-19T13:22:40;2.70;;;2.00;;
6412;SDS011;3239;48.714;9.472;2022-10-19T13:36:04;1.83;;;1.60;;
6412;SDS011;3239;48.714;9.472;2022-10-19T13:41:24;3.27;;;1.93;;
6412;SDS011;3239;48.714;9.472;2022-10-19T14:07:12;2.10;;;1.90;;
6412;SDS011;3239;48.714;9.472;2022-10-19T14:10:13;2.10;;;1.57;;
6412;SDS011;3239;48.714;9.472;2022-10-19T14:12:43;3.10;;;1.63;;
6412;SDS011;3239;48.714;9.472;2022-10-19T14:15:24;4.07;;;2.57;;
6412;SDS011;3239;48.714;9.472;2022-10-19T14:17:53;3.30;;;2.00;;
6412;SDS011;3239;48.714;9.472;2022-10-19T14:20:25;4.30;;;1.70;;
6412;SDS011;3239;48.714;9.472;2022-10-19T14:22:57;2.40;;;2.00;;
6412;SDS011;3239;48.714;9.472;2022-10-19T14:25:50;4.43;;;1.97;;
6412;SDS011;3239;48.714;9.472;2022-10-19T14:28:22;7.73;;;1.90;;
6412;SDS011;3239;48.714;9.472;2022-10-19T14:33:34;2.93;;;1.43;;
6412;SDS011;3239;48.714;9.472;2022-10-19T14:36:06;1.87;;;1.70;;
6412;SDS011;3239;48.714;9.472;2022-10-19T14:38:40;2.33;;;2.13;;
6412;SDS011;3239;48.714;9.472;2022-10-19T14:41:17;4.13;;;1.73;;
6412;SDS011;3239;48.714;9.472;2022-10-19T14:43:54;5.53;;;2.07;;
6412;SDS011;3239;48.714;9.472;2022-10-19T14:46:24;2.33;;;2.00;;
6412;SDS011;3239;48.714;9.472;2022-10-19T14:48:57;3.20;;;2.27;;
6412;SDS011;3239;48.714;9.472;2022-10-19T14:54:23;6.97;;;2.20;;
6412;SDS011;3239;48.714;9.472;2022-10-19T14:57:04;2.87;;;2.20;;
6412;SDS011;3239;48.714;9.472;2022-10-19T15:00:06;5.13;;;2.30;;
6412;SDS011;3239;48.714;9.472;2022-10-19T15:02:43;6.27;;;4.87;;
6412;SDS011;3239;48.714;9.472;2022-10-19T15:05:28;4.53;;;2.53;;
6412;SDS011;3239;48.714;9.472;2022-10-19T15:08:09;2.30;;;1.90;;
6412;SDS011;3239;48.714;9.472;2022-10-19T15:10:44;2.30;;;2.10;;
6412;SDS011;3239;48.714;9.472;2022-10-19T15:13:18;4.73;;;1.97;;
6412;SDS011;3239;48.714;9.472;2022-10-19T15:15:49;5.27;;;2.40;;
6412;SDS011;3239;48.714;9.472;2022-10-19T15:18:20;3.10;;;2.70;;
6412;SDS011;3239;48.714;9.472;2022-10-19T15:21:02;5.00;;;2.80;;
6412;SDS011;3239;48.714;9.472;2022-10-19T15:23:39;3.47;;;3.17;;
6412;SDS011;3239;48.714;9.472;2022-10-19T15:26:20;5.03;;;2.73;;
6412;SDS011;3239;48.714;9.472;2022-10-19T15:28:54;3.00;;;2.70;;
6412;SDS011;3239;48.714;9.472;2022-10-19T15:31:32;3.30;;;3.00;;
6412;SDS011;3239;48.714;9.472;2022-10-19T15:33:58;4.63;;;3.33;;
6412;SDS011;3239;48.714;9.472;2022-10-19T15:36:27;6.87;;;3.50;;
6412;SDS011;3239;48.714;9.472;2022-10-19T15:38:58;9.47;;;5.83;;
6412;SDS011;3239;48.714;9.472;2022-10-19T15:41:32;6.23;;;3.10;;
6412;SDS011;3239;48.714;9.472;2022-10-19T15:44:02;4.47;;;4.07;;
6412;SDS011;3239;48.714;9.472;2022-10-19T15:52:17;8.17;;;4.80;;
6412;SDS011;3239;48.714;9.472;2022-10-19T15:54:48;4.60;;;3.90;;
6412;SDS011;3239;48.714;9.472;2022-10-19T15:57:37;5.07;;;4.57;;
6412;SDS011;3239;48.714;9.472;2022-10-19T16:00:15;5.17;;;4.70;;
6412;SDS011;3239;48.714;9.472;2022-10-19T16:02:41;5.10;;;4.70;;
6412;SDS011;3239;48.714;9.472;2022-10-19T16:05:07;5.80;;;5.30;;
6412;SDS011;3239;48.714;9.472;2022-10-19T16:07:35;6.00;;;5.50;;
6412;SDS011;3239;48.714;9.472;2022-10-19T16:10:04;5.60;;;5.10;;
6412;SDS011;3239;48.714;9.472;2022-10-19T16:12:31;9.33;;;4.77;;
6412;SDS011;3239;48.714;9.472;2022-10-19T16:14:57;6.00;;;5.40;;
6412;SDS011;3239;48.714;9.472;2022-10-19T16:17:23;4.77;;;4.37;;
6412;SDS011;3239;48.714;9.472;2022-10-19T16:19:49;6.90;;;4.43;;
6412;SDS011;3239;48.714;9.472;2022-10-19T16:22:15;5.70;;;5.10;;
6412;SDS011;3239;48.714;9.472;2022-10-19T16:24:41;10.50;;;4.70;;
6412;SDS011;3239;48.714;9.472;2022-10-19T16:27:06;27.23;;;4.40;;
6412;SDS011;3239;48.714;9.472;2022-10-19T16:29:33;10.43;;;4.80;;
6412;SDS011;3239;48.714;9.472;2022-10-19T16:31:59;6.93;;;4.63;;
6412;SDS011;3239;48.714;9.472;2022-10-19T16:34:25;10.73;;;4.93;;
6412;SDS011;3239;48.714;9.472;2022-10-19T16:36:51;6.10;;;4.87;;
6412;SDS011;3239;48.714;9.472;2022-10-19T16:39:17;8.97;;;5.20;;
6412;SDS011;3239;48.714;9.472;2022-10-19T16:41:43;5.27;;;4.70;;
6412;SDS011;3239;48.714;9.472;2022-10-19T16:44:10;9.83;;;4.80;;
6412;SDS011;3239;48.714;9.472;2022-10-19T16:46:36;4.83;;;4.30;;
6412;SDS011;3239;48.714;9.472;2022-10-19T16:49:02;7.80;;;4.80;;
6412;SDS011;3239;48.714;9.472;2022-10-19T16:51:35;6.27;;;5.73;;
6412;SDS011;3239;48.714;9.472;2022-10-19T16:54:03;6.50;;;5.67;;
6412;SDS011;3239;48.714;9.472;2022-10-19T16:56:32;11.93;;;8.30;;
6412;SDS011;3239;48.714;9.472;2022-10-19T16:59:00;13.37;;;5.97;;
6412;SDS011;3239;48.714;9.472;2022-10-19T17:01:31;12.47;;;5.47;;
6412;SDS011;3239;48.714;9.472;2022-10-19T17:03:58;6.43;;;4.67;;
6412;SDS011;3239;48.714;9.472;2022-10-19T17:06:25;5.10;;;4.60;;
6412;SDS011;3239;48.714;9.472;2022-10-19T17:08:53;7.77;;;4.73;;
6412;SDS011;3239;48.714;9.472;2022-10-19T17:11:26;5.90;;;5.30;;
6412;SDS011;3239;48.714;9.472;2022-10-19T17:13:55;4.23;;;3.87;;
6412;SDS011;3239;48.714;9.472;2022-10-19T17:16:24;7.50;;;5.37;;
6412;SDS011;3239;48.714;9.472;2022-10-19T17:18:55;9.70;;;5.23;;
6412;SDS011;3239;48.714;9.472;2022-10-19T17:21:24;9.03;;;5.57;;
6412;SDS011;3239;48.714;9.472;2022-10-19T17:23:54;6.23;;;5.37;;
6412;SDS011;3239;48.714;9.472;2022-10-19T17:28:59;8.90;;;5.80;;
6412;SDS011;3239;48.714;9.472;2022-10-19T17:31:26;5.20;;;4.80;;
6412;SDS011;3239;48.714;9.472;2022-10-19T17:33:52;8.63;;;5.50;;
6412;SDS011;3239;48.714;9.472;2022-10-19T17:36:20;10.90;;;5.20;;
6412;SDS011;3239;48.714;9.472;2022-10-19T17:38:53;5.00;;;4.60;;
6412;SDS011;3239;48.714;9.472;2022-10-19T17:41:22;5.10;;;4.70;;
6412;SDS011;3239;48.714;9.472;2022-10-19T17:43:49;15.03;;;6.67;;
6412;SDS011;3239;48.714;9.472;2022-10-19T17:46:36;14.30;;;10.37;;
6412;SDS011;3239;48.714;9.472;2022-10-19T17:49:02;11.30;;;7.80;;
6412;SDS011;3239;48.714;9.472;2022-10-19T17:51:29;11.57;;;9.47;;
6412;SDS011;3239;48.714;9.472;2022-10-19T17:53:58;13.17;;;9.80;;
6412;SDS011;3239;48.714;9.472;2022-10-19T17:56:32;11.77;;;8.90;;
6412;SDS011;3239;48.714;9.472;2022-10-19T17:58:58;9.63;;;7.43;;
6412;SDS011;3239;48.714;9.472;2022-10-19T18:01:26;12.47;;;6.60;;
6412;SDS011;3239;48.714;9.472;2022-10-19T18:03:53;10.00;;;6.60;;
6412;SDS011;3239;48.714;9.472;2022-10-19T18:06:20;9.57;;;6.60;;
6412;SDS011;3239;48.714;9.472;2022-10-19T18:08:53;8.63;;;5.77;;
6412;SDS011;3239;48.714;9.472;2022-10-19T18:11:21;8.27;;;5.13;;
6412;SDS011;3239;48.714;9.472;2022-10-19T18:13:56;7.00;;;6.40;;
6412;SDS011;3239;48.714;9.472;2022-10-19T18:16:26;8.00;;;5.97;;
6412;SDS011;3239;48.714;9.472;2022-10-19T18:18:58;6.83;;;5.60;;
6412;SDS011;3239;48.714;9.472;2022-10-19T18:21:26;9.10;;;7.00;;